createdAt,value
2018-07-05T00:00:47.191Z,0.00
2018-07-05T00:01:47.224Z,0.00
2018-07-05T00:02:47.235Z,0.00
2018-07-05T00:03:47.262Z,0.00
2018-07-05T00:04:47.292Z,0.00
2018-07-05T00:05:47.314Z,0.00
2018-07-05T00:06:47.341Z,0.00
2018-07-05T00:07:47.367Z,0.00
2018-07-05T00:08:47.392Z,0.00
2018-07-05T00:09:47.433Z,0.00
2018-07-05T00:10:47.447Z,0.00
2018-07-05T00:11:47.475Z,0.00
2018-07-05T00:12:47.513Z,0.00
2018-07-05T00:13:47.530Z,0.00
2018-07-05T00:14:47.553Z,0.00
2018-07-05T00:15:47.582Z,0.00
2018-07-05T00:16:47.609Z,0.00
2018-07-05T00:17:47.637Z,0.00
2018-07-05T00:18:47.659Z,0.00
2018-07-05T00:19:47.688Z,0.00
2018-07-05T00:20:47.718Z,0.00
2018-07-05T00:21:47.744Z,0.00
2018-07-05T00:22:47.771Z,0.00
2018-07-05T00:23:47.795Z,0.00
2018-07-05T00:24:47.828Z,0.00
2018-07-05T00:25:47.853Z,0.00
2018-07-05T00:26:47.872Z,0.00
2018-07-05T00:27:47.906Z,0.00
2018-07-05T00:28:47.930Z,0.00
2018-07-05T00:29:47.952Z,0.00
2018-07-05T00:30:47.976Z,0.00
2018-07-05T00:31:48.009Z,0.00
2018-07-05T00:32:48.043Z,0.00
2018-07-05T00:33:48.062Z,0.00
2018-07-05T00:34:48.088Z,0.00
2018-07-05T00:35:48.111Z,0.00
2018-07-05T00:36:48.146Z,0.00
2018-07-05T00:37:48.170Z,0.00
2018-07-05T00:38:48.193Z,0.00
2018-07-05T00:39:48.222Z,0.00
2018-07-05T00:40:48.248Z,0.00
2018-07-05T00:41:48.274Z,0.00
2018-07-05T00:42:48.303Z,0.00
2018-07-05T00:43:48.328Z,0.00
2018-07-05T00:44:48.358Z,0.00
2018-07-05T00:45:48.384Z,0.00
2018-07-05T00:46:48.408Z,0.00
2018-07-05T00:47:48.434Z,0.00
2018-07-05T00:48:48.462Z,0.00
2018-07-05T00:51:48.552Z,0.00
2018-07-05T00:52:48.572Z,0.00
2018-07-05T00:53:48.600Z,0.00
2018-07-05T00:54:48.620Z,0.00
2018-07-05T00:55:48.646Z,0.00
2018-07-05T00:56:48.674Z,0.00
2018-07-05T00:57:48.700Z,0.00
2018-07-05T00:58:48.729Z,0.00
2018-07-05T00:59:48.752Z,0.00
2018-07-05T01:00:48.777Z,0.00
2018-07-05T01:01:48.809Z,0.00
2018-07-05T01:02:48.833Z,0.00
2018-07-05T01:03:48.856Z,0.00
2018-07-05T01:04:48.879Z,0.00
2018-07-05T01:05:48.916Z,0.00
2018-07-05T01:06:48.937Z,0.00
2018-07-05T01:07:48.974Z,0.00
2018-07-05T01:08:48.992Z,0.00
2018-07-05T01:09:49.020Z,0.00
2018-07-05T01:10:49.042Z,0.00
2018-07-05T01:11:49.068Z,0.00
2018-07-05T01:12:49.099Z,0.00
2018-07-05T01:13:49.124Z,0.00
2018-07-05T01:14:49.143Z,0.00
2018-07-05T01:15:49.178Z,0.00
2018-07-05T01:16:49.201Z,0.00
2018-07-05T01:17:49.226Z,0.00
2018-07-05T01:18:49.251Z,0.00
2018-07-05T01:19:49.278Z,0.00
2018-07-05T01:20:49.307Z,0.00
2018-07-05T01:21:49.337Z,0.00
2018-07-05T01:22:49.363Z,0.00
2018-07-05T01:23:49.385Z,0.00
2018-07-05T01:24:49.409Z,0.00
2018-07-05T01:25:49.442Z,0.00
2018-07-05T01:26:49.459Z,0.00
2018-07-05T01:27:49.494Z,0.00
2018-07-05T01:28:49.523Z,0.00
2018-07-05T01:29:49.539Z,0.00
2018-07-05T01:30:49.569Z,0.00
2018-07-05T01:31:49.601Z,0.00
2018-07-05T01:32:49.625Z,0.00
2018-07-05T01:33:49.650Z,0.00
2018-07-05T01:34:49.676Z,0.00
2018-07-05T01:35:49.703Z,0.00
2018-07-05T01:36:49.727Z,0.00
2018-07-05T01:37:49.758Z,0.00
2018-07-05T01:38:49.783Z,0.00
2018-07-05T01:39:49.807Z,0.00
2018-07-05T01:40:49.835Z,0.00
2018-07-05T01:41:49.853Z,0.00
2018-07-05T01:42:49.888Z,0.00
2018-07-05T01:43:49.911Z,0.00
2018-07-05T01:44:49.939Z,0.00
2018-07-05T01:45:49.968Z,0.00
2018-07-05T01:46:49.995Z,0.00
2018-07-05T01:47:50.019Z,0.00
2018-07-05T01:48:50.047Z,0.00
2018-07-05T01:49:50.069Z,0.00
2018-07-05T01:50:50.092Z,0.00
2018-07-05T01:51:50.127Z,0.00
2018-07-05T01:52:50.150Z,0.00
2018-07-05T01:53:50.181Z,0.00
2018-07-05T01:54:50.201Z,0.00
2018-07-05T01:55:50.227Z,0.00
2018-07-05T01:56:50.248Z,0.00
2018-07-05T01:57:50.287Z,0.00
2018-07-05T01:58:50.301Z,0.00
2018-07-05T01:59:50.331Z,0.00
2018-07-05T02:00:50.361Z,0.00
2018-07-05T02:01:50.385Z,0.00
2018-07-05T02:02:50.407Z,0.00
2018-07-05T02:03:50.432Z,0.00
2018-07-05T02:04:50.462Z,0.00
2018-07-05T02:05:50.489Z,0.00
2018-07-05T02:06:50.517Z,0.00
2018-07-05T02:07:50.540Z,0.00
2018-07-05T02:08:50.570Z,0.00
2018-07-05T02:09:50.610Z,0.00
2018-07-05T02:10:50.620Z,0.00
2018-07-05T02:11:50.648Z,0.00
2018-07-05T02:12:50.675Z,0.00
2018-07-05T02:13:50.695Z,0.00
2018-07-05T02:14:50.728Z,0.00
2018-07-05T02:15:50.760Z,0.00
2018-07-05T02:16:50.772Z,0.00
2018-07-05T02:17:50.808Z,0.00
2018-07-05T02:18:50.832Z,0.00
2018-07-05T02:19:50.854Z,0.00
2018-07-05T02:20:50.878Z,0.00
2018-07-05T02:21:50.914Z,0.00
2018-07-05T02:22:50.934Z,0.00
2018-07-05T02:23:50.968Z,0.00
2018-07-05T02:24:53.610Z,0.00
2018-07-05T02:25:51.013Z,0.00
2018-07-05T02:26:51.034Z,0.00
2018-07-05T02:27:51.064Z,0.00
2018-07-05T02:28:51.100Z,0.00
2018-07-05T02:29:51.112Z,0.00
2018-07-05T02:30:51.140Z,0.00
2018-07-05T02:31:51.171Z,0.00
2018-07-05T02:32:51.195Z,0.00
2018-07-05T02:33:51.221Z,0.00
2018-07-05T02:34:51.256Z,0.00
2018-07-05T02:35:51.274Z,0.00
2018-07-05T02:36:51.304Z,0.00
2018-07-05T02:37:51.326Z,0.00
2018-07-05T02:38:51.354Z,0.00
2018-07-05T02:39:51.381Z,0.00
2018-07-05T02:40:51.406Z,0.00
2018-07-05T02:41:51.430Z,0.00
2018-07-05T02:42:51.454Z,0.00
2018-07-05T02:43:51.478Z,0.00
2018-07-05T02:44:51.507Z,0.00
2018-07-05T02:45:51.532Z,5.63
2018-07-05T02:46:51.562Z,5.63
2018-07-05T02:47:51.602Z,5.63
2018-07-05T02:48:51.610Z,5.63
2018-07-05T02:49:51.640Z,5.63
2018-07-05T02:50:51.664Z,5.63
2018-07-05T02:51:51.688Z,5.63
2018-07-05T02:52:51.716Z,5.63
2018-07-05T02:53:51.738Z,5.63
2018-07-05T02:54:51.768Z,11.25
2018-07-05T02:55:51.798Z,11.25
2018-07-05T02:56:51.818Z,11.25
2018-07-05T02:57:51.842Z,11.25
2018-07-05T02:58:51.868Z,11.25
2018-07-05T02:59:51.896Z,11.25
2018-07-05T03:00:51.924Z,16.88
2018-07-05T03:01:51.950Z,16.88
2018-07-05T03:03:52.003Z,16.88
2018-07-05T03:04:52.030Z,16.88
2018-07-05T03:05:52.056Z,22.50
2018-07-05T03:06:52.078Z,22.50
2018-07-05T03:07:52.104Z,22.50
2018-07-05T03:08:52.127Z,22.50
2018-07-05T03:09:52.158Z,22.50
2018-07-05T03:10:52.188Z,28.13
2018-07-05T03:11:52.211Z,28.13
2018-07-05T03:12:52.236Z,28.13
2018-07-05T03:13:52.260Z,33.75
2018-07-05T03:14:52.290Z,33.75
2018-07-05T03:15:52.321Z,39.38
2018-07-05T03:16:52.340Z,39.38
2018-07-05T03:17:52.366Z,39.38
2018-07-05T03:18:52.388Z,39.38
2018-07-05T03:19:52.422Z,39.38
2018-07-05T03:20:52.441Z,39.38
2018-07-05T03:21:52.468Z,45.00
2018-07-05T03:22:52.500Z,45.00
2018-07-05T03:23:52.518Z,45.00
2018-07-05T03:24:52.551Z,45.00
2018-07-05T03:25:52.567Z,50.63
2018-07-05T03:26:52.598Z,50.63
2018-07-05T03:27:52.634Z,50.63
2018-07-05T03:28:52.654Z,50.63
2018-07-05T03:29:52.678Z,56.25
2018-07-05T03:30:52.708Z,56.25
2018-07-05T03:31:52.729Z,56.25
2018-07-05T03:32:52.756Z,61.88
2018-07-05T03:33:52.778Z,61.88
2018-07-05T03:35:52.832Z,67.50
2018-07-05T03:36:52.859Z,67.50
2018-07-05T03:37:52.888Z,67.50
2018-07-05T03:38:52.912Z,67.50
2018-07-05T03:39:52.939Z,73.13
2018-07-05T03:40:52.960Z,73.13
2018-07-05T03:41:52.987Z,73.13
2018-07-05T03:42:54.027Z,78.75
2018-07-05T03:43:53.036Z,78.75
2018-07-05T03:44:53.066Z,78.75
2018-07-05T03:45:53.104Z,84.38
2018-07-05T03:46:53.323Z,84.38
2018-07-05T03:47:53.146Z,84.38
2018-07-05T03:48:53.174Z,90.00
2018-07-05T03:49:53.196Z,90.00
2018-07-05T03:50:53.222Z,90.00
2018-07-05T03:51:53.249Z,95.63
2018-07-05T03:52:53.277Z,95.63
2018-07-05T03:53:53.297Z,95.63
2018-07-05T03:54:53.330Z,101.25
2018-07-05T03:55:53.352Z,101.25
2018-07-05T03:56:53.374Z,101.25
2018-07-05T03:57:53.400Z,101.25
2018-07-05T03:58:53.426Z,101.25
2018-07-05T03:59:53.500Z,106.88
2018-07-05T04:00:54.097Z,106.88
2018-07-05T04:01:56.134Z,106.88
2018-07-05T04:02:53.536Z,106.88
2018-07-05T04:03:53.554Z,106.88
2018-07-05T04:04:53.590Z,112.50
2018-07-05T04:06:36.157Z,112.50
2018-07-05T04:07:36.183Z,118.13
2018-07-05T04:08:36.209Z,118.13
2018-07-05T04:09:37.451Z,118.13
2018-07-05T04:10:36.265Z,123.75
2018-07-05T04:11:36.302Z,123.75
2018-07-05T04:12:36.316Z,123.75
2018-07-05T04:13:36.338Z,123.75
2018-07-05T04:14:36.368Z,129.38
2018-07-05T04:16:18.934Z,135.00
2018-07-05T04:17:18.966Z,129.38
2018-07-05T04:18:18.994Z,129.38
2018-07-05T04:19:19.824Z,123.75
2018-07-05T04:20:19.040Z,123.75
2018-07-05T04:21:19.073Z,129.38
2018-07-05T04:23:51.761Z,140.63
2018-07-05T04:24:51.788Z,146.25
2018-07-05T04:25:51.813Z,146.25
2018-07-05T04:26:51.834Z,151.88
2018-07-05T04:27:51.904Z,146.25
2018-07-05T04:28:51.890Z,146.25
2018-07-05T04:29:51.920Z,151.88
2018-07-05T04:30:51.934Z,157.50
2018-07-05T04:31:51.975Z,157.50
2018-07-05T04:33:35.754Z,163.13
2018-07-05T04:34:34.567Z,163.13
2018-07-05T04:35:34.590Z,168.75
2018-07-05T04:36:34.616Z,168.75
2018-07-05T04:37:34.652Z,168.75
2018-07-05T04:38:34.665Z,168.75
2018-07-05T04:39:34.693Z,168.75
2018-07-05T04:40:34.720Z,163.13
2018-07-05T04:41:34.745Z,157.50
2018-07-05T04:42:34.816Z,163.13
2018-07-05T04:43:34.797Z,163.13
2018-07-05T04:44:34.823Z,163.13
2018-07-05T04:45:34.851Z,163.13
2018-07-05T04:46:34.882Z,168.75
2018-07-05T04:47:34.904Z,174.38
2018-07-05T04:48:34.924Z,180.00
2018-07-05T04:49:34.959Z,185.63
2018-07-05T04:50:34.981Z,185.63
2018-07-05T04:51:35.008Z,180.00
2018-07-05T04:52:35.041Z,180.00
2018-07-05T04:53:35.061Z,180.00
2018-07-05T04:54:35.084Z,180.00
2018-07-05T04:55:35.174Z,180.00
2018-07-05T04:56:35.139Z,185.63
2018-07-05T04:57:35.162Z,191.25
2018-07-05T04:59:35.422Z,196.88
2018-07-05T05:00:35.235Z,191.25
2018-07-05T05:01:35.283Z,196.88
2018-07-05T05:02:35.297Z,196.88
2018-07-05T05:03:36.130Z,202.50
2018-07-05T05:04:35.347Z,219.38
2018-07-05T05:05:35.374Z,230.63
2018-07-05T05:06:35.394Z,230.63
2018-07-05T05:07:35.425Z,225.00
2018-07-05T05:08:35.450Z,219.38
2018-07-05T05:09:35.478Z,213.75
2018-07-05T05:10:35.506Z,213.75
2018-07-05T05:11:35.525Z,219.38
2018-07-05T05:12:35.556Z,225.00
2018-07-05T05:13:35.581Z,241.88
2018-07-05T05:14:35.606Z,236.25
2018-07-05T05:15:35.628Z,241.88
2018-07-05T05:16:35.657Z,247.50
2018-07-05T05:17:35.684Z,253.13
2018-07-05T05:18:35.716Z,275.63
2018-07-05T05:19:35.739Z,275.63
2018-07-05T05:20:35.764Z,270.00
2018-07-05T05:21:35.799Z,286.88
2018-07-05T05:22:35.813Z,275.63
2018-07-05T05:23:35.845Z,264.38
2018-07-05T05:24:35.871Z,275.63
2018-07-05T05:25:35.895Z,275.63
2018-07-05T05:26:35.923Z,281.25
2018-07-05T05:27:39.177Z,303.75
2018-07-05T05:28:35.977Z,298.13
2018-07-05T05:29:36.001Z,292.50
2018-07-05T05:30:36.026Z,298.13
2018-07-05T05:31:36.054Z,303.75
2018-07-05T05:32:36.075Z,298.13
2018-07-05T05:33:36.101Z,298.13
2018-07-05T05:34:36.133Z,292.50
2018-07-05T05:35:36.165Z,281.25
2018-07-05T05:36:36.183Z,286.88
2018-07-05T05:37:36.207Z,309.38
2018-07-05T05:38:36.239Z,320.63
2018-07-05T05:39:36.265Z,326.25
2018-07-05T05:40:36.293Z,315.00
2018-07-05T05:41:36.315Z,309.38
2018-07-05T05:42:36.347Z,315.00
2018-07-05T05:43:36.373Z,326.25
2018-07-05T05:44:36.389Z,331.88
2018-07-05T05:45:36.421Z,343.13
2018-07-05T05:46:36.447Z,343.13
2018-07-05T05:47:36.489Z,337.50
2018-07-05T05:48:37.713Z,343.13
2018-07-05T05:49:36.528Z,343.13
2018-07-05T05:50:36.554Z,365.63
2018-07-05T05:51:36.579Z,343.13
2018-07-05T05:52:36.607Z,337.50
2018-07-05T05:53:36.632Z,354.38
2018-07-05T05:54:36.656Z,376.88
2018-07-05T05:55:39.334Z,382.50
2018-07-05T05:56:36.721Z,376.88
2018-07-05T05:57:36.743Z,365.63
2018-07-05T05:58:39.599Z,331.88
2018-07-05T05:59:36.795Z,298.13
2018-07-05T06:00:36.821Z,270.00
2018-07-05T06:01:36.857Z,258.75
2018-07-05T06:03:22.447Z,258.75
2018-07-05T06:04:19.451Z,236.25
2018-07-05T06:05:19.474Z,236.25
2018-07-05T06:06:19.502Z,247.50
2018-07-05T06:07:19.527Z,264.38
2018-07-05T06:08:19.552Z,270.00
2018-07-05T06:09:19.579Z,230.63
2018-07-05T06:10:19.613Z,225.00
2018-07-05T06:11:19.635Z,230.63
2018-07-05T06:12:19.661Z,253.13
2018-07-05T06:13:19.689Z,253.13
2018-07-05T06:14:19.715Z,270.00
2018-07-05T06:15:19.768Z,320.63
2018-07-05T06:16:19.767Z,376.88
2018-07-05T06:17:19.789Z,416.25
2018-07-05T06:23:07.725Z,444.38
2018-07-05T06:24:07.764Z,461.25
2018-07-05T06:25:07.781Z,421.88
2018-07-05T06:26:07.816Z,405.00
2018-07-05T06:27:07.838Z,416.25
2018-07-05T06:28:07.861Z,444.38
2018-07-05T06:30:00.462Z,472.50
2018-07-05T06:31:00.479Z,466.88
2018-07-05T06:32:03.132Z,455.63
2018-07-05T06:33:01.138Z,466.88
2018-07-05T06:34:00.565Z,438.75
2018-07-05T06:35:03.209Z,427.50
2018-07-05T06:36:00.618Z,427.50
2018-07-05T06:37:04.476Z,416.25
2018-07-05T06:38:00.672Z,438.75
2018-07-05T06:39:00.705Z,438.75
2018-07-05T06:40:00.725Z,461.25
2018-07-05T06:41:00.754Z,466.88
2018-07-05T06:42:00.775Z,483.75
2018-07-05T06:43:00.810Z,528.75
2018-07-05T06:44:00.829Z,528.75
2018-07-05T06:45:00.857Z,506.25
2018-07-05T06:46:00.883Z,489.38
2018-07-05T06:47:00.907Z,472.50
2018-07-05T06:48:00.936Z,466.88
2018-07-05T06:49:00.962Z,461.25
2018-07-05T06:50:00.997Z,511.88
2018-07-05T06:51:01.012Z,545.63
2018-07-05T06:52:01.040Z,500.63
2018-07-05T06:53:01.097Z,506.25
2018-07-05T06:54:01.090Z,523.13
2018-07-05T06:55:01.928Z,551.25
2018-07-05T06:56:01.145Z,562.50
2018-07-05T06:57:03.794Z,551.25
2018-07-05T06:58:01.203Z,528.75
2018-07-05T06:59:01.227Z,534.38
2018-07-05T07:00:01.251Z,545.63
2018-07-05T07:01:01.278Z,534.38
2018-07-05T07:02:01.305Z,551.25
2018-07-05T07:03:01.336Z,573.75
2018-07-05T07:04:01.361Z,568.13
2018-07-05T07:05:01.391Z,556.88
2018-07-05T07:06:01.414Z,551.25
2018-07-05T07:07:01.444Z,540.00
2018-07-05T07:08:01.530Z,540.00
2018-07-05T07:09:01.501Z,568.13
2018-07-05T07:10:01.522Z,562.50
2018-07-05T07:11:01.547Z,551.25
2018-07-05T07:12:01.579Z,511.88
2018-07-05T07:13:01.609Z,511.88
2018-07-05T07:14:01.641Z,523.13
2018-07-05T07:15:01.663Z,545.63
2018-07-05T07:16:01.756Z,551.25
2018-07-05T07:17:01.712Z,534.38
2018-07-05T07:18:01.737Z,523.13
2018-07-05T07:19:01.768Z,517.50
2018-07-05T07:20:01.796Z,523.13
2018-07-05T07:21:01.828Z,528.75
2018-07-05T07:22:01.849Z,545.63
2018-07-05T07:23:01.879Z,517.50
2018-07-05T07:24:01.905Z,478.13
2018-07-05T07:25:01.939Z,483.75
2018-07-05T07:26:01.960Z,500.63
2018-07-05T07:27:01.989Z,528.75
2018-07-05T07:28:02.018Z,545.63
2018-07-05T07:29:02.037Z,562.50
2018-07-05T07:30:02.080Z,601.88
2018-07-05T07:31:02.095Z,646.88
2018-07-05T07:32:02.176Z,618.75
2018-07-05T07:33:02.151Z,624.38
2018-07-05T07:34:02.179Z,646.88
2018-07-05T07:35:02.209Z,635.63
2018-07-05T07:36:02.231Z,601.88
2018-07-05T07:37:02.265Z,590.63
2018-07-05T07:38:02.288Z,568.13
2018-07-05T07:39:02.319Z,568.13
2018-07-05T07:40:02.345Z,590.63
2018-07-05T07:41:02.372Z,618.75
2018-07-05T07:42:02.399Z,630.00
2018-07-05T07:43:02.422Z,607.50
2018-07-05T07:44:02.455Z,618.75
2018-07-05T07:45:02.479Z,630.00
2018-07-05T07:46:02.503Z,635.63
2018-07-05T07:47:02.534Z,590.63
2018-07-05T07:48:02.563Z,551.25
2018-07-05T07:49:02.586Z,528.75
2018-07-05T07:50:02.617Z,523.13
2018-07-05T07:51:02.646Z,500.63
2018-07-05T07:52:02.669Z,495.00
2018-07-05T07:53:02.705Z,483.75
2018-07-05T07:54:02.732Z,466.88
2018-07-05T07:55:02.752Z,483.75
2018-07-05T07:56:02.792Z,511.88
2018-07-05T07:57:02.811Z,500.63
2018-07-05T07:58:02.837Z,523.13
2018-07-05T07:59:02.896Z,545.63
2018-07-05T08:00:02.894Z,579.38
2018-07-05T08:01:02.915Z,573.75
2018-07-05T08:02:02.963Z,585.00
2018-07-05T08:03:02.972Z,573.75
2018-07-05T08:04:03.001Z,556.88
2018-07-05T08:05:03.022Z,528.75
2018-07-05T08:06:03.052Z,540.00
2018-07-05T08:07:03.082Z,551.25
2018-07-05T08:08:03.144Z,573.75
2018-07-05T08:09:03.137Z,624.38
2018-07-05T08:10:03.169Z,686.25
2018-07-05T08:11:03.195Z,691.88
2018-07-05T08:12:03.218Z,714.38
2018-07-05T08:13:03.247Z,742.50
2018-07-05T08:14:03.270Z,731.25
2018-07-05T08:15:03.332Z,697.50
2018-07-05T08:16:03.331Z,669.38
2018-07-05T08:17:03.360Z,635.63
2018-07-05T08:18:03.381Z,675.00
2018-07-05T08:19:03.408Z,646.88
2018-07-05T08:20:03.443Z,635.63
2018-07-05T08:21:03.469Z,675.00
2018-07-05T08:22:03.493Z,686.25
2018-07-05T08:23:03.529Z,697.50
2018-07-05T08:24:03.549Z,708.75
2018-07-05T08:25:03.585Z,753.75
2018-07-05T08:26:03.601Z,703.13
2018-07-05T08:27:03.631Z,703.13
2018-07-05T08:28:03.656Z,725.63
2018-07-05T08:29:03.688Z,798.75
2018-07-05T08:30:03.715Z,781.88
2018-07-05T08:31:03.745Z,776.25
2018-07-05T08:32:03.773Z,759.38
2018-07-05T08:33:03.798Z,759.38
2018-07-05T08:34:03.825Z,753.75
2018-07-05T08:35:03.853Z,765.00
2018-07-05T08:36:03.889Z,776.25
2018-07-05T08:37:03.911Z,759.38
2018-07-05T08:38:03.937Z,736.88
2018-07-05T08:39:03.961Z,776.25
2018-07-05T08:40:03.996Z,838.13
2018-07-05T08:41:04.024Z,798.75
2018-07-05T08:42:04.048Z,798.75
2018-07-05T08:43:04.078Z,765.00
2018-07-05T08:44:04.103Z,781.88
2018-07-05T08:45:04.140Z,731.25
2018-07-05T08:46:04.163Z,596.25
2018-07-05T08:47:04.187Z,466.88
2018-07-05T08:48:04.222Z,399.38
2018-07-05T08:49:04.242Z,421.88
2018-07-05T08:50:04.271Z,483.75
2018-07-05T08:51:04.307Z,517.50
2018-07-05T08:52:04.329Z,556.88
2018-07-05T08:53:04.350Z,624.38
2018-07-05T08:54:04.382Z,731.25
2018-07-05T08:55:04.412Z,798.75
2018-07-05T08:56:04.442Z,849.38
2018-07-05T08:57:04.466Z,821.25
2018-07-05T08:58:04.497Z,826.88
2018-07-05T08:59:04.520Z,843.75
2018-07-05T09:00:04.555Z,855.00
2018-07-05T09:01:04.577Z,900.00
2018-07-05T09:02:04.607Z,793.13
2018-07-05T09:03:04.636Z,697.50
2018-07-05T09:04:04.655Z,663.75
2018-07-05T09:05:04.687Z,652.50
2018-07-05T09:06:04.716Z,635.63
2018-07-05T09:07:04.743Z,630.00
2018-07-05T09:08:04.771Z,652.50
2018-07-05T09:09:04.793Z,703.13
2018-07-05T09:10:04.829Z,748.13
2018-07-05T09:11:04.855Z,804.38
2018-07-05T09:12:04.884Z,888.75
2018-07-05T09:13:04.913Z,905.63
2018-07-05T09:14:04.942Z,838.13
2018-07-05T09:15:04.965Z,804.38
2018-07-05T09:16:04.995Z,793.13
2018-07-05T09:17:05.024Z,765.00
2018-07-05T09:18:05.094Z,759.38
2018-07-05T09:19:05.081Z,765.00
2018-07-05T09:20:05.105Z,815.63
2018-07-05T09:21:05.138Z,916.88
2018-07-05T09:22:05.168Z,956.25
2018-07-05T09:23:05.274Z,984.38
2018-07-05T09:24:05.219Z,956.25
2018-07-05T09:25:05.248Z,995.63
2018-07-05T09:26:05.277Z,1057.50
2018-07-05T09:27:05.303Z,1125.00
2018-07-05T09:28:05.333Z,1085.63
2018-07-05T09:29:05.365Z,984.38
2018-07-05T09:30:05.394Z,916.88
2018-07-05T09:31:05.470Z,832.50
2018-07-05T09:32:05.456Z,753.75
2018-07-05T09:33:05.477Z,776.25
2018-07-05T09:34:05.513Z,759.38
2018-07-05T09:35:05.533Z,590.63
2018-07-05T09:36:05.557Z,517.50
2018-07-05T09:37:05.614Z,624.38
2018-07-05T09:38:05.621Z,708.75
2018-07-05T09:39:05.649Z,821.25
2018-07-05T09:40:05.674Z,1006.88
2018-07-05T09:41:05.710Z,967.50
2018-07-05T09:42:05.733Z,939.38
2018-07-05T09:43:05.761Z,990.00
2018-07-05T09:44:05.794Z,928.13
2018-07-05T09:45:05.816Z,1001.25
2018-07-05T09:46:05.847Z,928.13
2018-07-05T09:47:05.912Z,748.13
2018-07-05T09:48:05.907Z,669.38
2018-07-05T09:49:05.931Z,669.38
2018-07-05T09:50:05.962Z,551.25
2018-07-05T09:51:05.984Z,568.13
2018-07-05T09:52:06.013Z,573.75
2018-07-05T09:53:06.047Z,596.25
2018-07-05T09:54:06.075Z,686.25
2018-07-05T09:55:06.103Z,742.50
2018-07-05T09:56:06.120Z,821.25
2018-07-05T09:57:06.155Z,832.50
2018-07-05T09:58:06.231Z,928.13
2018-07-05T09:59:06.204Z,1012.50
2018-07-05T10:00:06.243Z,1001.25
2018-07-05T10:01:06.273Z,995.63
2018-07-05T10:02:06.292Z,900.00
2018-07-05T10:03:06.326Z,838.13
2018-07-05T10:04:06.390Z,821.25
2018-07-05T10:05:06.378Z,765.00
2018-07-05T10:06:06.407Z,793.13
2018-07-05T10:07:06.440Z,843.75
2018-07-05T10:08:06.463Z,793.13
2018-07-05T10:09:06.494Z,770.63
2018-07-05T10:10:06.535Z,675.00
2018-07-05T10:11:06.550Z,686.25
2018-07-05T10:12:06.580Z,765.00
2018-07-05T10:13:06.707Z,798.75
2018-07-05T10:14:06.635Z,731.25
2018-07-05T10:15:06.661Z,641.25
2018-07-05T10:16:06.693Z,618.75
2018-07-05T10:17:06.724Z,742.50
2018-07-05T10:18:06.749Z,708.75
2018-07-05T10:19:06.776Z,776.25
2018-07-05T10:20:06.809Z,770.63
2018-07-05T10:21:06.836Z,624.38
2018-07-05T10:22:06.862Z,601.88
2018-07-05T10:23:06.896Z,590.63
2018-07-05T10:24:06.923Z,607.50
2018-07-05T10:25:06.948Z,686.25
2018-07-05T10:26:06.971Z,753.75
2018-07-05T10:27:07.001Z,826.88
2018-07-05T10:28:07.030Z,714.38
2018-07-05T10:29:07.059Z,680.63
2018-07-05T10:30:07.082Z,725.63
2018-07-05T10:31:07.112Z,731.25
2018-07-05T10:32:07.139Z,742.50
2018-07-05T10:33:07.171Z,720.00
2018-07-05T10:34:07.204Z,736.88
2018-07-05T10:35:07.237Z,804.38
2018-07-05T10:36:07.255Z,821.25
2018-07-05T10:37:07.283Z,815.63
2018-07-05T10:38:07.317Z,866.25
2018-07-05T10:39:07.334Z,978.75
2018-07-05T10:40:07.374Z,1012.50
2018-07-05T10:41:07.394Z,1046.25
2018-07-05T10:42:07.420Z,1018.13
2018-07-05T10:43:07.447Z,1096.88
2018-07-05T10:44:07.481Z,1012.50
2018-07-05T10:45:07.509Z,888.75
2018-07-05T10:46:07.537Z,871.88
2018-07-05T10:47:07.569Z,967.50
2018-07-05T10:48:07.592Z,1237.50
2018-07-05T10:49:07.623Z,1288.13
2018-07-05T10:50:07.647Z,1496.25
2018-07-05T10:51:07.679Z,1518.75
2018-07-05T10:52:07.698Z,1530.00
2018-07-05T10:53:07.734Z,1535.63
2018-07-05T10:54:07.769Z,1608.75
2018-07-05T10:55:07.790Z,1530.00
2018-07-05T10:56:07.816Z,1473.75
2018-07-05T10:57:07.847Z,1344.38
2018-07-05T10:58:07.877Z,1175.63
2018-07-05T10:59:07.903Z,1040.63
2018-07-05T11:00:07.932Z,939.38
2018-07-05T11:01:08.034Z,877.50
2018-07-05T11:02:07.990Z,838.13
2018-07-05T11:03:08.020Z,849.38
2018-07-05T11:04:08.054Z,883.13
2018-07-05T11:05:08.076Z,888.75
2018-07-05T11:06:08.114Z,894.38
2018-07-05T11:07:08.134Z,905.63
2018-07-05T11:08:08.173Z,984.38
2018-07-05T11:09:08.196Z,1113.75
2018-07-05T11:10:08.220Z,1276.88
2018-07-05T11:11:08.250Z,1366.88
2018-07-05T11:12:08.287Z,1361.25
2018-07-05T11:13:08.317Z,1164.38
2018-07-05T11:14:08.340Z,1091.25
2018-07-05T11:15:08.365Z,1035.00
2018-07-05T11:16:08.404Z,911.25
2018-07-05T11:17:08.428Z,961.88
2018-07-05T11:18:09.469Z,1006.88
2018-07-05T11:19:08.480Z,1012.50
2018-07-05T11:20:08.516Z,1113.75
2018-07-05T11:24:08.629Z,1215.00
2018-07-05T11:25:56.217Z,1091.25
2018-07-05T11:26:56.250Z,1080.00
2018-07-05T11:27:56.288Z,1186.88
2018-07-05T11:28:56.311Z,1186.88
2018-07-05T11:29:56.340Z,1980.00
2018-07-05T11:30:56.374Z,1276.88
2018-07-05T11:31:56.400Z,1490.63
2018-07-05T11:32:56.453Z,1856.25
2018-07-05T11:33:56.456Z,1389.38
2018-07-05T11:34:56.486Z,1428.75
2018-07-05T11:35:56.517Z,1625.63
2018-07-05T11:36:56.546Z,1918.13
2018-07-05T11:37:56.572Z,1580.63
2018-07-05T11:38:56.613Z,1440.00
2018-07-05T11:39:56.636Z,1153.13
2018-07-05T11:40:56.662Z,984.38
2018-07-05T11:41:56.695Z,978.75
2018-07-05T11:42:56.727Z,1051.88
2018-07-05T11:43:56.755Z,1080.00
2018-07-05T11:44:56.782Z,1136.25
2018-07-05T11:45:56.813Z,1170.00
2018-07-05T11:46:56.848Z,1198.13
2018-07-05T11:47:56.924Z,1108.13
2018-07-05T11:48:56.912Z,1068.75
2018-07-05T11:49:56.930Z,1040.63
2018-07-05T11:50:56.970Z,1023.75
2018-07-05T11:51:56.995Z,956.25
2018-07-05T11:52:57.019Z,900.00
2018-07-05T11:53:57.058Z,866.25
2018-07-05T11:54:57.139Z,838.13
2018-07-05T11:55:57.112Z,832.50
2018-07-05T11:56:57.140Z,894.38
2018-07-05T11:57:57.176Z,916.88
2018-07-05T11:58:57.208Z,905.63
2018-07-05T11:59:57.234Z,877.50
2018-07-05T12:00:57.264Z,748.13
2018-07-05T12:01:57.298Z,720.00
2018-07-05T12:02:58.754Z,697.50
2018-07-05T12:03:57.351Z,714.38
2018-07-05T12:05:39.924Z,826.88
2018-07-05T12:06:40.001Z,933.75
2018-07-05T12:07:39.984Z,1085.63
2018-07-05T12:08:40.027Z,1175.63
2018-07-05T12:09:40.043Z,1237.50
2018-07-05T12:10:40.073Z,1451.25
2018-07-05T12:11:40.118Z,1243.13
2018-07-05T12:12:40.136Z,1321.88
2018-07-05T12:13:40.159Z,1288.13
2018-07-05T12:14:40.194Z,1299.38
2018-07-05T12:15:40.218Z,1305.00
2018-07-05T12:16:40.250Z,1327.50
2018-07-05T12:17:40.278Z,1203.75
2018-07-05T12:18:40.312Z,1119.38
2018-07-05T12:19:40.339Z,1130.63
2018-07-05T12:20:40.376Z,1276.88
2018-07-05T12:21:40.394Z,1755.00
2018-07-05T12:22:40.432Z,1282.50
2018-07-05T12:23:40.452Z,1085.63
2018-07-05T12:24:40.482Z,933.75
2018-07-05T12:25:40.508Z,978.75
2018-07-05T12:26:40.542Z,1023.75
2018-07-05T12:27:40.580Z,1046.25
2018-07-05T12:28:40.600Z,1023.75
2018-07-05T12:29:40.629Z,1141.88
2018-07-05T12:30:40.656Z,1299.38
2018-07-05T12:31:40.687Z,1130.63
2018-07-05T12:32:40.722Z,933.75
2018-07-05T12:33:40.828Z,871.88
2018-07-05T12:34:40.780Z,843.75
2018-07-05T12:35:40.808Z,871.88
2018-07-05T12:36:40.840Z,826.88
2018-07-05T12:37:40.866Z,787.50
2018-07-05T12:38:40.897Z,776.25
2018-07-05T12:39:40.937Z,793.13
2018-07-05T12:40:40.954Z,849.38
2018-07-05T12:41:40.984Z,922.50
2018-07-05T12:42:41.022Z,990.00
2018-07-05T12:43:41.044Z,1051.88
2018-07-05T12:44:41.080Z,1108.13
2018-07-05T12:45:41.104Z,1153.13
2018-07-05T12:46:41.132Z,1231.88
2018-07-05T12:47:41.160Z,1288.13
2018-07-05T12:48:41.186Z,1254.38
2018-07-05T12:49:41.220Z,1147.50
2018-07-05T12:50:41.252Z,1051.88
2018-07-05T12:51:41.281Z,928.13
2018-07-05T12:52:41.306Z,866.25
2018-07-05T12:53:41.342Z,815.63
2018-07-05T12:54:41.362Z,815.63
2018-07-05T12:55:41.394Z,821.25
2018-07-05T12:56:41.428Z,849.38
2018-07-05T12:57:41.456Z,900.00
2018-07-05T12:58:41.482Z,939.38